createdAt,value
2018-07-22T00:00:14.409Z,1007.39
2018-07-22T00:00:54.964Z,1007.37
2018-07-22T00:01:35.515Z,1007.34
2018-07-22T00:02:16.087Z,1007.31
2018-07-22T00:02:56.662Z,1007.36
2018-07-22T00:03:37.216Z,1007.36
2018-07-22T00:04:17.780Z,1007.33
2018-07-22T00:04:58.354Z,1007.33
2018-07-22T00:05:38.915Z,1007.37
2018-07-22T00:06:19.481Z,1007.39
2018-07-22T00:07:00.060Z,1007.35
2018-07-22T00:07:40.639Z,1007.38
2018-07-22T00:08:21.194Z,1007.39
2018-07-22T00:09:01.760Z,1007.41
2018-07-22T00:09:42.334Z,1007.4
2018-07-22T00:10:22.888Z,1007.4
2018-07-22T00:11:03.444Z,1007.39
2018-07-22T00:11:44.002Z,1007.39
2018-07-22T00:12:24.561Z,1007.39
2018-07-22T00:13:05.169Z,1007.38
2018-07-22T00:13:45.769Z,1007.4
2018-07-22T00:14:26.331Z,1007.39
2018-07-22T00:15:06.910Z,1007.32
2018-07-22T00:15:47.474Z,1007.32
2018-07-22T00:16:28.066Z,1007.32
2018-07-22T00:17:08.640Z,1007.38
2018-07-22T00:17:49.214Z,1007.39
2018-07-22T00:18:29.778Z,1007.37
2018-07-22T00:19:10.350Z,1007.41
2018-07-22T00:19:50.903Z,1007.41
2018-07-22T00:20:31.466Z,1007.43
2018-07-22T00:21:12.031Z,1007.43
2018-07-22T00:21:52.588Z,1007.36
2018-07-22T00:22:33.155Z,1007.39
2018-07-22T00:23:13.752Z,1007.36
2018-07-22T00:23:54.308Z,1007.4
2018-07-22T00:24:34.875Z,1007.4
2018-07-22T00:25:15.447Z,1007.39
2018-07-22T00:25:56.041Z,1007.38
2018-07-22T00:26:36.597Z,1007.4
2018-07-22T00:27:17.166Z,1007.38
2018-07-22T00:27:57.767Z,1007.36
2018-07-22T00:28:38.293Z,1007.37
2018-07-22T00:29:18.952Z,1007.41
2018-07-22T00:29:59.450Z,1007.41
2018-07-22T00:30:40.019Z,1007.39
2018-07-22T00:31:20.577Z,1007.4
2018-07-22T00:32:01.151Z,1007.42
2018-07-22T00:32:41.761Z,1007.46
2018-07-22T00:33:22.342Z,1007.44
2018-07-22T00:34:02.920Z,1007.46
2018-07-22T00:34:43.529Z,1007.45
2018-07-22T00:35:24.093Z,1007.46
2018-07-22T00:36:04.685Z,1007.4
2018-07-22T00:36:45.258Z,1007.41
2018-07-22T00:37:25.810Z,1007.43
2018-07-22T00:38:06.377Z,1007.45
2018-07-22T00:38:46.933Z,1007.47
2018-07-22T00:39:27.519Z,1007.42
2018-07-22T00:40:08.092Z,1007.48
2018-07-22T00:40:48.663Z,1007.45
2018-07-22T00:41:29.215Z,1007.46
2018-07-22T00:42:09.778Z,1007.47
2018-07-22T00:42:50.339Z,1007.45
2018-07-22T00:43:30.957Z,1007.51
2018-07-22T00:44:11.496Z,1007.43
2018-07-22T00:44:52.049Z,1007.46
2018-07-22T00:45:32.610Z,1007.46
2018-07-22T00:46:13.171Z,1007.47
2018-07-22T00:46:53.746Z,1007.44
2018-07-22T00:47:34.306Z,1007.45
2018-07-22T00:48:14.884Z,1007.46
2018-07-22T00:48:55.466Z,1007.47
2018-07-22T00:49:36.024Z,1007.42
2018-07-22T00:50:16.589Z,1007.46
2018-07-22T00:50:57.147Z,1007.43
2018-07-22T00:51:37.723Z,1007.43
2018-07-22T00:52:18.274Z,1007.44
2018-07-22T00:52:58.844Z,1007.41
2018-07-22T00:53:39.407Z,1007.41
2018-07-22T00:54:19.969Z,1007.45
2018-07-22T00:55:00.539Z,1007.42
2018-07-22T00:55:41.107Z,1007.43
2018-07-22T00:56:21.658Z,1007.43
2018-07-22T00:57:02.215Z,1007.44
2018-07-22T00:57:42.784Z,1007.41
2018-07-22T00:58:23.333Z,1007.42
2018-07-22T00:59:03.908Z,1007.43
2018-07-22T00:59:44.515Z,1007.42
2018-07-22T01:00:25.067Z,1007.39
2018-07-22T01:01:05.668Z,1007.42
2018-07-22T01:01:46.238Z,1007.42
2018-07-22T01:02:26.806Z,1007.4
2018-07-22T01:03:07.376Z,1007.42
2018-07-22T01:03:47.936Z,1007.4
2018-07-22T01:04:28.601Z,1007.43
2018-07-22T01:05:09.152Z,1007.36
2018-07-22T01:05:49.727Z,1007.35
2018-07-22T01:06:30.284Z,1007.35
2018-07-22T01:07:10.850Z,1007.32
2018-07-22T01:07:51.418Z,1007.34
2018-07-22T01:08:31.980Z,1007.33
2018-07-22T01:09:12.540Z,1007.35
2018-07-22T01:09:53.145Z,1007.32
2018-07-22T01:10:33.707Z,1007.34
2018-07-22T01:11:14.258Z,1007.37
2018-07-22T01:11:54.826Z,1007.37
2018-07-22T01:12:35.393Z,1007.36
2018-07-22T01:13:15.979Z,1007.39
2018-07-22T01:13:56.548Z,1007.38
2018-07-22T01:14:37.199Z,1007.38
2018-07-22T01:15:17.764Z,1007.38
2018-07-22T01:15:58.336Z,1007.37
2018-07-22T01:16:38.899Z,1007.4
2018-07-22T01:17:19.471Z,1007.37
2018-07-22T01:18:00.035Z,1007.38
2018-07-22T01:18:40.591Z,1007.39
2018-07-22T01:19:21.160Z,1007.43
2018-07-22T01:20:01.730Z,1007.39
2018-07-22T01:20:42.384Z,1007.35
2018-07-22T01:21:22.950Z,1007.41
2018-07-22T01:22:03.515Z,1007.41
2018-07-22T01:22:44.090Z,1007.45
2018-07-22T01:23:24.660Z,1007.41
2018-07-22T01:24:05.235Z,1007.43
2018-07-22T01:24:45.792Z,1007.37
2018-07-22T01:25:26.370Z,1007.45
2018-07-22T01:26:07.009Z,1007.44
2018-07-22T01:26:47.559Z,1007.44
2018-07-22T01:27:28.124Z,1007.41
2018-07-22T01:28:08.723Z,1007.45
2018-07-22T01:28:49.300Z,1007.45
2018-07-22T01:29:29.860Z,1007.39
2018-07-22T01:30:10.443Z,1007.44
2018-07-22T01:30:50.969Z,1007.43
2018-07-22T01:31:31.533Z,1007.49
2018-07-22T01:32:12.069Z,1007.45
2018-07-22T01:32:52.620Z,1007.45
2018-07-22T01:33:33.194Z,1007.4
2018-07-22T01:34:13.768Z,1007.43
2018-07-22T01:34:54.334Z,1007.39
2018-07-22T01:35:34.903Z,1007.43
2018-07-22T01:36:15.470Z,1007.43
2018-07-22T01:36:56.054Z,1007.44
2018-07-22T01:37:36.616Z,1007.43
2018-07-22T01:38:17.187Z,1007.42
2018-07-22T01:38:57.766Z,1007.45
2018-07-22T01:39:38.330Z,1007.43
2018-07-22T01:40:18.965Z,1007.41
2018-07-22T01:40:59.539Z,1007.44
2018-07-22T01:41:40.110Z,1007.41
2018-07-22T01:42:20.668Z,1007.45
2018-07-22T01:43:01.243Z,1007.5
2018-07-22T01:43:41.813Z,1007.49
2018-07-22T01:44:22.378Z,1007.49
2018-07-22T01:45:02.982Z,1007.44
2018-07-22T01:45:43.558Z,1007.47
2018-07-22T01:46:24.119Z,1007.48
2018-07-22T01:47:04.684Z,1007.42
2018-07-22T01:47:45.246Z,1007.47
2018-07-22T01:48:25.828Z,1007.47
2018-07-22T01:49:06.397Z,1007.48
2018-07-22T01:49:46.975Z,1007.46
2018-07-22T01:50:27.538Z,1007.46
2018-07-22T01:51:08.125Z,1007.5
2018-07-22T01:51:48.688Z,1007.47
2018-07-22T01:52:29.271Z,1007.53
2018-07-22T01:53:09.843Z,1007.5
2018-07-22T01:53:50.398Z,1007.5
2018-07-22T01:54:30.955Z,1007.47
2018-07-22T01:55:11.530Z,1007.48
2018-07-22T01:55:52.099Z,1007.51
2018-07-22T01:56:32.665Z,1007.48
2018-07-22T01:57:13.301Z,1007.47
2018-07-22T01:57:53.861Z,1007.48
2018-07-22T01:58:34.423Z,1007.47
2018-07-22T01:59:14.988Z,1007.43
2018-07-22T01:59:55.552Z,1007.46
2018-07-22T02:00:36.111Z,1007.45
2018-07-22T02:01:16.671Z,1007.45
2018-07-22T02:01:57.249Z,1007.45
2018-07-22T02:02:37.818Z,1007.44
2018-07-22T02:03:18.384Z,1007.43
2018-07-22T02:03:58.943Z,1007.45
2018-07-22T02:04:39.511Z,1007.45
2018-07-22T02:05:20.065Z,1007.46
2018-07-22T02:06:00.630Z,1007.44
2018-07-22T02:06:41.199Z,1007.44
2018-07-22T02:07:21.751Z,1007.45
2018-07-22T02:08:02.321Z,1007.44
2018-07-22T02:08:42.890Z,1007.5
2018-07-22T02:09:23.449Z,1007.5
2018-07-22T02:10:04.015Z,1007.52
2018-07-22T02:10:44.564Z,1007.49
2018-07-22T02:11:25.129Z,1007.51
2018-07-22T02:12:05.684Z,1007.53
2018-07-22T02:12:46.249Z,1007.51
2018-07-22T02:13:26.812Z,1007.52
2018-07-22T02:14:07.380Z,1007.58
2018-07-22T02:14:47.962Z,1007.54
2018-07-22T02:15:28.517Z,1007.54
2018-07-22T02:16:09.070Z,1007.57
2018-07-22T02:16:49.665Z,1007.51
2018-07-22T02:17:30.250Z,1007.5
2018-07-22T02:18:10.797Z,1007.48
2018-07-22T02:18:51.376Z,1007.52
2018-07-22T02:19:31.935Z,1007.5
2018-07-22T02:20:12.499Z,1007.48
2018-07-22T02:20:53.095Z,1007.49
2018-07-22T02:21:33.640Z,1007.48
2018-07-22T02:22:14.201Z,1007.44
2018-07-22T02:22:54.780Z,1007.48
2018-07-22T02:23:35.347Z,1007.48
2018-07-22T02:24:15.899Z,1007.46
2018-07-22T02:24:56.479Z,1007.45
2018-07-22T02:25:37.032Z,1007.5
2018-07-22T02:26:17.610Z,1007.52
2018-07-22T02:26:58.165Z,1007.54
2018-07-22T02:27:38.732Z,1007.57
2018-07-22T02:28:19.296Z,1007.55
2018-07-22T02:28:59.852Z,1007.54
2018-07-22T02:29:40.400Z,1007.53
2018-07-22T02:30:20.948Z,1007.59
2018-07-22T02:31:01.503Z,1007.61
2018-07-22T02:31:42.055Z,1007.58
2018-07-22T02:32:22.628Z,1007.62
2018-07-22T02:33:03.204Z,1007.61
2018-07-22T02:33:43.767Z,1007.63
2018-07-22T02:34:24.337Z,1007.59
2018-07-22T02:35:04.916Z,1007.6
2018-07-22T02:35:45.460Z,1007.59
2018-07-22T02:36:26.027Z,1007.54
2018-07-22T02:37:06.565Z,1007.58
2018-07-22T02:37:47.159Z,1007.55
2018-07-22T02:38:27.728Z,1007.55
2018-07-22T02:39:08.292Z,1007.55
2018-07-22T02:39:48.857Z,1007.56
2018-07-22T02:40:29.425Z,1007.53
2018-07-22T02:41:09.996Z,1007.54
2018-07-22T02:41:50.569Z,1007.56
2018-07-22T02:42:31.122Z,1007.54
2018-07-22T02:43:11.698Z,1007.52
2018-07-22T02:43:52.254Z,1007.56
2018-07-22T02:44:32.821Z,1007.51
2018-07-22T02:45:13.373Z,1007.57
2018-07-22T02:45:53.927Z,1007.55
2018-07-22T02:46:34.562Z,1007.58
2018-07-22T02:47:15.129Z,1007.61
2018-07-22T02:47:55.691Z,1007.62
2018-07-22T02:48:36.280Z,1007.61
2018-07-22T02:49:16.833Z,1007.6
2018-07-22T02:49:57.406Z,1007.63
2018-07-22T02:50:37.984Z,1007.57
2018-07-22T02:51:18.540Z,1007.59
2018-07-22T02:51:59.102Z,1007.57
2018-07-22T02:52:39.669Z,1007.57
2018-07-22T02:53:20.248Z,1007.58
2018-07-22T02:54:00.817Z,1007.6
2018-07-22T02:54:41.382Z,1007.59
2018-07-22T02:55:22.105Z,1007.57
2018-07-22T02:56:02.772Z,1007.59
2018-07-22T02:56:43.336Z,1007.62
2018-07-22T02:57:23.903Z,1007.63
2018-07-22T02:58:04.481Z,1007.6
2018-07-22T02:58:45.050Z,1007.62
2018-07-22T02:59:25.619Z,1007.66
2018-07-22T03:00:06.191Z,1007.63
2018-07-22T03:00:46.811Z,1007.62
2018-07-22T03:01:27.381Z,1007.63
2018-07-22T03:02:07.948Z,1007.61
2018-07-22T03:02:48.509Z,1007.64
2018-07-22T03:03:29.099Z,1007.65
2018-07-22T03:04:09.636Z,1007.62
2018-07-22T03:04:50.196Z,1007.63
2018-07-22T03:05:30.764Z,1007.59
2018-07-22T03:06:11.328Z,1007.59
2018-07-22T03:06:51.889Z,1007.66
2018-07-22T03:07:32.439Z,1007.6
2018-07-22T03:08:13.007Z,1007.59
2018-07-22T03:08:53.566Z,1007.6
2018-07-22T03:09:34.119Z,1007.61
2018-07-22T03:10:14.695Z,1007.59
2018-07-22T03:10:55.258Z,1007.6
2018-07-22T03:11:35.856Z,1007.59
2018-07-22T03:12:16.424Z,1007.63
2018-07-22T03:12:57.014Z,1007.6
2018-07-22T03:13:37.590Z,1007.62
2018-07-22T03:14:18.151Z,1007.63
2018-07-22T03:14:58.720Z,1007.63
2018-07-22T03:15:39.298Z,1007.66
2018-07-22T03:16:19.859Z,1007.63
2018-07-22T03:17:00.445Z,1007.65
2018-07-22T03:17:40.991Z,1007.68
2018-07-22T03:18:21.563Z,1007.67
2018-07-22T03:19:02.125Z,1007.68
2018-07-22T03:19:42.689Z,1007.64
2018-07-22T03:20:23.262Z,1007.66
2018-07-22T03:21:03.840Z,1007.65
2018-07-22T03:21:44.410Z,1007.64
2018-07-22T03:22:24.982Z,1007.68
2018-07-22T03:23:05.546Z,1007.68
2018-07-22T03:23:46.106Z,1007.69
2018-07-22T03:24:26.678Z,1007.73
2018-07-22T03:25:07.246Z,1007.72
2018-07-22T03:25:47.806Z,1007.68
2018-07-22T03:26:28.372Z,1007.73
2018-07-22T03:27:08.932Z,1007.7
2018-07-22T03:27:49.493Z,1007.72
2018-07-22T03:28:30.071Z,1007.73
2018-07-22T03:29:10.672Z,1007.73
2018-07-22T03:29:51.238Z,1007.73
2018-07-22T03:30:31.828Z,1007.7
2018-07-22T03:31:12.371Z,1007.73
2018-07-22T03:31:52.934Z,1007.73
2018-07-22T03:32:33.508Z,1007.74
2018-07-22T03:33:14.078Z,1007.72
2018-07-22T03:33:54.650Z,1007.68
2018-07-22T03:34:35.207Z,1007.72
2018-07-22T03:35:15.784Z,1007.7
2018-07-22T03:35:56.364Z,1007.71
2018-07-22T03:36:36.935Z,1007.72
2018-07-22T03:37:17.891Z,1007.72
2018-07-22T03:37:58.463Z,1007.71
2018-07-22T03:38:39.016Z,1007.73
2018-07-22T03:39:19.579Z,1007.68
2018-07-22T03:40:00.142Z,1007.69
2018-07-22T03:40:40.718Z,1007.72
2018-07-22T03:41:21.277Z,1007.72
2018-07-22T03:42:01.853Z,1007.68
2018-07-22T03:42:42.415Z,1007.7
2018-07-22T03:43:22.977Z,1007.72
2018-07-22T03:44:03.536Z,1007.74
2018-07-22T03:44:44.111Z,1007.73
2018-07-22T03:45:24.670Z,1007.74
2018-07-22T03:46:05.259Z,1007.71
2018-07-22T03:46:45.812Z,1007.73
2018-07-22T03:47:26.398Z,1007.7
2018-07-22T03:48:06.964Z,1007.73
2018-07-22T03:48:47.530Z,1007.75
2018-07-22T03:49:28.125Z,1007.75
2018-07-22T03:50:08.689Z,1007.72
2018-07-22T03:50:49.264Z,1007.73
2018-07-22T03:51:29.820Z,1007.71
2018-07-22T03:52:10.385Z,1007.76
2018-07-22T03:52:50.938Z,1007.74
2018-07-22T03:53:31.490Z,1007.74
2018-07-22T03:54:12.042Z,1007.73
2018-07-22T03:54:52.618Z,1007.75
2018-07-22T03:55:33.174Z,1007.77
2018-07-22T03:56:13.756Z,1007.75
2018-07-22T03:56:54.329Z,1007.75
2018-07-22T03:57:34.918Z,1007.81
2018-07-22T03:58:15.489Z,1007.77
2018-07-22T03:58:56.055Z,1007.78
2018-07-22T03:59:36.629Z,1007.77
2018-07-22T04:00:17.223Z,1007.75
2018-07-22T04:00:57.782Z,1007.77
2018-07-22T04:01:38.343Z,1007.78
2018-07-22T04:02:18.906Z,1007.74
2018-07-22T04:02:59.460Z,1007.75
2018-07-22T04:03:40.036Z,1007.78
2018-07-22T04:04:20.591Z,1007.82
2018-07-22T04:05:01.156Z,1007.81
2018-07-22T04:05:41.735Z,1007.81
2018-07-22T04:06:22.312Z,1007.77
2018-07-22T04:07:02.900Z,1007.79
2018-07-22T04:07:43.442Z,1007.8
2018-07-22T04:08:24.043Z,1007.77
2018-07-22T04:09:04.595Z,1007.76
2018-07-22T04:09:45.159Z,1007.78
2018-07-22T04:10:25.715Z,1007.78
2018-07-22T04:11:06.278Z,1007.77
2018-07-22T04:11:46.839Z,1007.77
2018-07-22T04:12:27.398Z,1007.78
2018-07-22T04:13:07.976Z,1007.75
2018-07-22T04:13:48.550Z,1007.75
2018-07-22T04:14:29.130Z,1007.78
2018-07-22T04:15:09.725Z,1007.75
2018-07-22T04:15:50.289Z,1007.72
2018-07-22T04:16:30.852Z,1007.76
2018-07-22T04:17:11.428Z,1007.72
2018-07-22T04:17:51.975Z,1007.77
2018-07-22T04:18:32.534Z,1007.8
2018-07-22T04:19:13.098Z,1007.75
2018-07-22T04:19:53.672Z,1007.75
2018-07-22T04:20:34.237Z,1007.74
2018-07-22T04:21:14.807Z,1007.75
2018-07-22T04:21:55.384Z,1007.73
2018-07-22T04:22:35.940Z,1007.74
2018-07-22T04:23:16.516Z,1007.74
2018-07-22T04:23:57.082Z,1007.75
2018-07-22T04:24:37.644Z,1007.74
2018-07-22T04:25:18.209Z,1007.72
2018-07-22T04:25:58.777Z,1007.74
2018-07-22T04:26:39.336Z,1007.79
2018-07-22T04:27:19.936Z,1007.78
2018-07-22T04:28:00.510Z,1007.78
2018-07-22T04:28:41.087Z,1007.8
2018-07-22T04:29:21.645Z,1007.79
2018-07-22T04:30:02.210Z,1007.79
2018-07-22T04:30:42.775Z,1007.79
2018-07-22T04:31:23.343Z,1007.8
2018-07-22T04:32:03.902Z,1007.81
2018-07-22T04:32:44.479Z,1007.83
2018-07-22T04:33:25.051Z,1007.8
2018-07-22T04:34:05.622Z,1007.79
2018-07-22T04:34:46.192Z,1007.76
2018-07-22T04:35:26.760Z,1007.79
2018-07-22T04:36:07.364Z,1007.76
2018-07-22T04:36:47.900Z,1007.74
2018-07-22T04:37:28.454Z,1007.76
2018-07-22T04:38:09.023Z,1007.79
2018-07-22T04:38:49.590Z,1007.75
2018-07-22T04:39:30.190Z,1007.77
2018-07-22T04:40:10.761Z,1007.78
2018-07-22T04:40:51.380Z,1007.82
2018-07-22T04:41:31.900Z,1007.77
2018-07-22T04:42:12.468Z,1007.77
2018-07-22T04:42:53.028Z,1007.76
2018-07-22T04:43:33.594Z,1007.76
2018-07-22T04:44:14.163Z,1007.81
2018-07-22T04:44:54.721Z,1007.77
2018-07-22T04:45:35.287Z,1007.77
2018-07-22T04:46:15.865Z,1007.78
2018-07-22T04:46:56.429Z,1007.78
2018-07-22T04:47:36.990Z,1007.78
2018-07-22T04:48:17.571Z,1007.78
2018-07-22T04:48:58.126Z,1007.82
2018-07-22T04:49:38.680Z,1007.84
2018-07-22T04:50:19.250Z,1007.77
2018-07-22T04:50:59.824Z,1007.78
2018-07-22T04:51:40.393Z,1007.79
2018-07-22T04:52:20.954Z,1007.75
2018-07-22T04:53:01.531Z,1007.8
2018-07-22T04:53:42.098Z,1007.77
2018-07-22T04:54:22.675Z,1007.81
2018-07-22T04:55:03.244Z,1007.78
2018-07-22T04:55:43.816Z,1007.78
2018-07-22T04:56:24.384Z,1007.77
2018-07-22T04:57:04.941Z,1007.84
2018-07-22T04:57:45.507Z,1007.76
2018-07-22T04:58:26.082Z,1007.76
2018-07-22T04:59:06.644Z,1007.77
2018-07-22T04:59:47.204Z,1007.73
2018-07-22T05:00:27.776Z,1007.73
2018-07-22T05:01:08.342Z,1007.74
2018-07-22T05:01:48.986Z,1007.76
2018-07-22T05:02:29.542Z,1007.78
2018-07-22T05:03:10.097Z,1007.77
2018-07-22T05:03:50.646Z,1007.75
2018-07-22T05:04:31.207Z,1007.77
2018-07-22T05:05:11.769Z,1007.76
2018-07-22T05:05:52.356Z,1007.77
2018-07-22T05:06:32.930Z,1007.78
2018-07-22T05:07:13.546Z,1007.79
2018-07-22T05:07:54.051Z,1007.81
2018-07-22T05:08:34.638Z,1007.8
2018-07-22T05:09:15.198Z,1007.79
2018-07-22T05:09:55.749Z,1007.81
2018-07-22T05:10:36.320Z,1007.8
2018-07-22T05:11:16.883Z,1007.82
2018-07-22T05:11:57.453Z,1007.81
2018-07-22T05:12:38.013Z,1007.79
2018-07-22T05:13:18.580Z,1007.84
2018-07-22T05:13:59.144Z,1007.8
2018-07-22T05:14:39.714Z,1007.81
2018-07-22T05:15:20.290Z,1007.84
2018-07-22T05:16:00.863Z,1007.8
2018-07-22T05:16:41.428Z,1007.79
2018-07-22T05:17:21.983Z,1007.82
2018-07-22T05:18:02.539Z,1007.78
2018-07-22T05:18:43.098Z,1007.82
2018-07-22T05:19:23.702Z,1007.8
2018-07-22T05:20:04.243Z,1007.81
2018-07-22T05:20:44.809Z,1007.83
2018-07-22T05:21:25.376Z,1007.82
2018-07-22T05:22:05.936Z,1007.8
2018-07-22T05:22:46.509Z,1007.81
2018-07-22T05:23:27.134Z,1007.8
2018-07-22T05:24:07.679Z,1007.8
2018-07-22T05:24:48.234Z,1007.78
2018-07-22T05:25:28.844Z,1007.75
2018-07-22T05:26:09.423Z,1007.78
2018-07-22T05:26:49.991Z,1007.75
2018-07-22T05:27:30.560Z,1007.75
2018-07-22T05:28:11.120Z,1007.75
2018-07-22T05:28:51.688Z,1007.77
2018-07-22T05:29:32.246Z,1007.76
2018-07-22T05:30:12.813Z,1007.76
2018-07-22T05:30:53.388Z,1007.76
2018-07-22T05:31:33.945Z,1007.78
2018-07-22T05:32:14.501Z,1007.77
2018-07-22T05:32:55.069Z,1007.76
2018-07-22T05:33:35.620Z,1007.75
2018-07-22T05:34:16.176Z,1007.77
2018-07-22T05:34:56.756Z,1007.75
2018-07-22T05:35:37.328Z,1007.79
2018-07-22T05:36:17.879Z,1007.81
2018-07-22T05:36:58.445Z,1007.8
2018-07-22T05:37:38.994Z,1007.82
2018-07-22T05:38:19.553Z,1007.81
2018-07-22T05:39:00.125Z,1007.75
2018-07-22T05:39:40.685Z,1007.77
2018-07-22T05:40:21.257Z,1007.79
2018-07-22T05:41:01.826Z,1007.9
2018-07-22T05:41:42.385Z,1007.82
2018-07-22T05:42:22.960Z,1007.83
2018-07-22T05:43:03.515Z,1007.83
2018-07-22T05:43:44.084Z,1007.86
2018-07-22T05:44:24.646Z,1007.84
2018-07-22T05:45:05.223Z,1007.89
2018-07-22T05:45:45.785Z,1007.89
2018-07-22T05:46:26.352Z,1007.91
2018-07-22T05:47:06.918Z,1007.91
2018-07-22T05:47:47.476Z,1007.91
2018-07-22T05:48:28.035Z,1007.94
2018-07-22T05:49:08.591Z,1007.95
2018-07-22T05:49:49.150Z,1007.87
2018-07-22T05:50:29.725Z,1007.94
2018-07-22T05:51:10.288Z,1007.96
2018-07-22T05:51:50.863Z,1007.91
2018-07-22T05:52:31.418Z,1008.02
2018-07-22T05:53:12.007Z,1007.97
2018-07-22T05:53:52.618Z,1007.96
2018-07-22T05:54:33.157Z,1007.96
2018-07-22T05:55:13.717Z,1007.94
2018-07-22T05:55:54.285Z,1007.95
2018-07-22T05:56:34.853Z,1007.94
2018-07-22T05:57:15.424Z,1007.95
2018-07-22T05:57:56.003Z,1007.93
2018-07-22T05:58:36.568Z,1007.96
2018-07-22T05:59:17.143Z,1007.97
2018-07-22T05:59:57.706Z,1007.98
2018-07-22T06:00:38.258Z,1007.98
2018-07-22T06:01:18.828Z,1007.97
2018-07-22T06:01:59.392Z,1008
2018-07-22T06:02:39.957Z,1008.02
2018-07-22T06:03:20.525Z,1008.03
2018-07-22T06:04:01.088Z,1007.99
2018-07-22T06:04:41.659Z,1008.05
2018-07-22T06:05:22.256Z,1008.03
2018-07-22T06:06:02.800Z,1008.01
2018-07-22T06:06:43.363Z,1008.06
2018-07-22T06:07:23.939Z,1008.02
2018-07-22T06:08:04.509Z,1008.06
2018-07-22T06:08:45.081Z,1008.05
2018-07-22T06:09:25.650Z,1008.04
2018-07-22T06:10:06.233Z,1008.06
2018-07-22T06:10:46.794Z,1008.12
2018-07-22T06:11:27.377Z,1008.09
2018-07-22T06:12:08.007Z,1008.07
2018-07-22T06:12:48.504Z,1008.09
2018-07-22T06:13:29.077Z,1008.15
2018-07-22T06:14:09.639Z,1008.09
2018-07-22T06:14:50.235Z,1008.08
2018-07-22T06:15:30.822Z,1008.11
2018-07-22T06:16:11.396Z,1008.12
2018-07-22T06:16:51.963Z,1008.09
2018-07-22T06:17:32.540Z,1008.1
2018-07-22T06:18:13.121Z,1008.14
2018-07-22T06:18:53.683Z,1008.12
2018-07-22T06:19:34.272Z,1008.14
2018-07-22T06:20:14.834Z,1008.18
2018-07-22T06:20:55.393Z,1008.16
2018-07-22T06:21:35.963Z,1008.16
2018-07-22T06:22:16.537Z,1008.14
2018-07-22T06:22:57.103Z,1008.16
2018-07-22T06:23:37.665Z,1008.16
2018-07-22T06:24:18.236Z,1008.2
2018-07-22T06:24:58.796Z,1008.19
2018-07-22T06:25:39.360Z,1008.19
2018-07-22T06:26:19.934Z,1008.24
2018-07-22T06:27:00.488Z,1008.19
2018-07-22T06:27:41.056Z,1008.24
2018-07-22T06:28:21.620Z,1008.29
2018-07-22T06:29:02.171Z,1008.27
2018-07-22T06:29:42.757Z,1008.28
2018-07-22T06:30:23.322Z,1008.28
2018-07-22T06:31:03.887Z,1008.31
2018-07-22T06:31:44.482Z,1008.34
2018-07-22T06:32:25.086Z,1008.33
2018-07-22T06:33:05.626Z,1008.31
2018-07-22T06:33:46.203Z,1008.29
2018-07-22T06:34:26.767Z,1008.29
2018-07-22T06:35:07.346Z,1008.29
2018-07-22T06:35:47.915Z,1008.3
2018-07-22T06:36:28.480Z,1008.29
2018-07-22T06:37:09.043Z,1008.27
2018-07-22T06:37:49.612Z,1008.3
2018-07-22T06:38:30.179Z,1008.3
2018-07-22T06:39:10.743Z,1008.29
2018-07-22T06:39:51.313Z,1008.31
2018-07-22T06:40:31.871Z,1008.32
2018-07-22T06:41:12.474Z,1008.33
2018-07-22T06:41:53.003Z,1008.32
2018-07-22T06:42:33.569Z,1008.32
2018-07-22T06:43:14.141Z,1008.31
2018-07-22T06:43:54.709Z,1008.31
2018-07-22T06:44:35.265Z,1008.33
2018-07-22T06:45:15.832Z,1008.31
2018-07-22T06:45:56.412Z,1008.32
2018-07-22T06:46:37.031Z,1008.33
2018-07-22T06:47:17.547Z,1008.32
2018-07-22T06:47:58.097Z,1008.34
2018-07-22T06:48:38.670Z,1008.33
2018-07-22T06:49:19.235Z,1008.35
2018-07-22T06:49:59.802Z,1008.39
2018-07-22T06:50:40.385Z,1008.39
2018-07-22T06:51:20.964Z,1008.39
2018-07-22T06:52:01.535Z,1008.4
2018-07-22T06:52:42.112Z,1008.39
2018-07-22T06:53:22.665Z,1008.38
2018-07-22T06:54:03.420Z,1008.38
2018-07-22T06:54:43.991Z,1008.36
2018-07-22T06:55:24.634Z,1008.38
2018-07-22T06:56:05.542Z,1008.38
2018-07-22T06:56:46.172Z,1008.37
2018-07-22T06:57:26.803Z,1008.39
2018-07-22T06:58:07.406Z,1008.37
2018-07-22T06:58:48.137Z,1008.33
2018-07-22T06:59:29.020Z,1008.33
2018-07-22T07:00:09.654Z,1008.32
2018-07-22T07:00:50.531Z,1008.33
2018-07-22T07:01:31.183Z,1008.34
2018-07-22T07:02:11.760Z,1008.33
2018-07-22T07:02:52.330Z,1008.35
2018-07-22T07:03:32.956Z,1008.35
2018-07-22T07:04:13.501Z,1008.32
2018-07-22T07:04:54.079Z,1008.34
2018-07-22T07:05:34.663Z,1008.29
2018-07-22T07:06:15.234Z,1008.36
2018-07-22T07:06:55.861Z,1008.33
2018-07-22T07:07:36.544Z,1008.33
2018-07-22T07:08:17.076Z,1008.32
2018-07-22T07:08:57.787Z,1008.31
2018-07-22T07:09:38.353Z,1008.32
2018-07-22T07:10:19.043Z,1008.34
2018-07-22T07:10:59.662Z,1008.33
2018-07-22T07:11:40.207Z,1008.31
2018-07-22T07:12:20.782Z,1008.34
2018-07-22T07:13:01.355Z,1008.31
2018-07-22T07:13:41.929Z,1008.33
2018-07-22T07:14:22.501Z,1008.3
2018-07-22T07:15:03.068Z,1008.31
2018-07-22T07:15:43.826Z,1008.35
2018-07-22T07:16:24.526Z,1008.35
2018-07-22T07:17:05.124Z,1008.36
2018-07-22T07:17:45.671Z,1008.31
2018-07-22T07:18:26.243Z,1008.34
2018-07-22T07:19:06.807Z,1008.37
2018-07-22T07:19:47.361Z,1008.34
2018-07-22T07:20:27.995Z,1008.3
2018-07-22T07:21:08.562Z,1008.32
2018-07-22T07:21:49.123Z,1008.36
2018-07-22T07:22:29.702Z,1008.34
2018-07-22T07:23:10.279Z,1008.35
2018-07-22T07:23:50.859Z,1008.32
2018-07-22T07:24:31.428Z,1008.38
2018-07-22T07:25:12.002Z,1008.36
2018-07-22T07:25:52.557Z,1008.34
2018-07-22T07:26:33.113Z,1008.37
2018-07-22T07:27:13.688Z,1008.35
2018-07-22T07:27:54.262Z,1008.37
2018-07-22T07:28:34.840Z,1008.36
2018-07-22T07:29:15.399Z,1008.39
2018-07-22T07:29:55.975Z,1008.4
2018-07-22T07:30:36.550Z,1008.41
2018-07-22T07:31:17.109Z,1008.41
2018-07-22T07:31:57.667Z,1008.45
2018-07-22T07:32:38.248Z,1008.46
2018-07-22T07:33:18.816Z,1008.47
2018-07-22T07:33:59.387Z,1008.51
2018-07-22T07:34:39.959Z,1008.54
2018-07-22T07:35:20.516Z,1008.51
2018-07-22T07:36:01.080Z,1008.59
2018-07-22T07:36:41.651Z,1008.53
2018-07-22T07:37:22.221Z,1008.47
2018-07-22T07:38:02.785Z,1008.44
2018-07-22T07:38:43.358Z,1008.49
2018-07-22T07:39:23.938Z,1008.51
2018-07-22T07:40:04.509Z,1008.53
2018-07-22T07:40:45.103Z,1008.52
2018-07-22T07:41:25.654Z,1008.54
2018-07-22T07:42:06.232Z,1008.53
2018-07-22T07:42:46.789Z,1008.54
2018-07-22T07:43:27.347Z,1008.56
2018-07-22T07:44:07.912Z,1008.55
2018-07-22T07:44:48.484Z,1008.53
2018-07-22T07:45:29.054Z,1008.54
2018-07-22T07:46:09.635Z,1008.51
2018-07-22T07:46:50.232Z,1008.52
2018-07-22T07:47:30.833Z,1008.55
2018-07-22T07:48:11.433Z,1008.55
2018-07-22T07:48:52.005Z,1008.52
2018-07-22T07:49:32.574Z,1008.55
2018-07-22T07:50:13.149Z,1008.52
2018-07-22T07:50:53.714Z,1008.5
2018-07-22T07:51:34.297Z,1008.48
2018-07-22T07:52:14.875Z,1008.5
2018-07-22T07:52:55.467Z,1008.46
2018-07-22T07:53:36.039Z,1008.47
2018-07-22T07:54:16.671Z,1008.47
2018-07-22T07:54:57.252Z,1008.49
2018-07-22T07:55:37.818Z,1008.48
2018-07-22T07:56:18.399Z,1008.47
2018-07-22T07:56:58.984Z,1008.45
2018-07-22T07:57:39.549Z,1008.46
2018-07-22T07:58:20.128Z,1008.47
2018-07-22T07:59:00.708Z,1008.47
2018-07-22T07:59:41.275Z,1008.44
2018-07-22T08:00:21.851Z,1008.43
2018-07-22T08:01:02.418Z,1008.43
2018-07-22T08:01:42.990Z,1008.41
2018-07-22T08:02:23.568Z,1008.42
2018-07-22T08:03:04.139Z,1008.41
2018-07-22T08:03:44.736Z,1008.42
2018-07-22T08:04:25.308Z,1008.44
2018-07-22T08:05:05.881Z,1008.44
2018-07-22T08:05:46.450Z,1008.42
2018-07-22T08:06:27.026Z,1008.47
2018-07-22T08:07:07.610Z,1008.52
2018-07-22T08:07:48.187Z,1008.48
2018-07-22T08:08:28.746Z,1008.48
2018-07-22T08:09:09.331Z,1008.49
2018-07-22T08:09:49.893Z,1008.48
2018-07-22T08:10:30.445Z,1008.49
2018-07-22T08:11:11.022Z,1008.51
2018-07-22T08:11:51.595Z,1008.52